Portada
METAR-TAF:

METAR-TAF

Aeroports :

Damasc, Síria

latitud: 33-25N, longitud: 036-31E, altitud: 608 m

Observació

L'informe es va fer fa 44 minuts, a les 02:00 UTC
Vent 9 kt del Sud-Oest
Temperatura 11°C
Humitat 54%
Pressió 1013 hPa
Visibilitat 10 km o més
Escasses núvols a una alçada de 3000 ft

METAR: OSDI 290200Z 23009KT 9999 FEW030 11/02 Q1013

Hora: 05:44 (02:44 UTC)

Pronòstic

L'informe es va fer fa 4 hores i 44 minuts, a les 22:00 UTC
Pronòstic vàlid del 29 a les 00 UTC al 30 a les 06 UTC
Vent 10 kt del Oest
Visibilitat 10 km o més
Escasses núvols a una alçada de 3000 ft
Núvols disperses a una alçada de 10000 ft
Temporalment
l' 29 a les 00 UTC al 29 a les 24 UTC
Vent 15 kt del Sud-Oest amb ràfegues de 25 kt
Visibilitat: 5000 m
Escasses núvols a una alçada de 2600 ft, Cumulonimbus.
Núvols disperses a una alçada de 3000 ft
Cel ennuvolat a una alçada de 9000 ft
xàfecs de pluja

TAF: OSDI 282200Z 2900/3006 26010KT 9999 FEW030 SCT100 TEMPO 2900/2924 22015G25KT 5000 SHRA FEW026CB SCT030 BKN090

Observacions i pronòstics meteorològics de més de 4000 aeroports (METAR i TAF).

Les estacions disponibles són els punts grocs i vermells al mapa.

Posi el ratolí al punt desitjat per veure el nom de l'estació.

Feu clic per veure les observacions i els pronòstics meteorològics.

Per canviar el mapa: feu clic els botons verds amb una creu de color negre per apropar; al botó verd amb un guió per allunyar la imatge; o en les fletxes verdes per a mapes adjacents.


METAR-TAF: